Time;durP1;ratioP1;P1;durP2;ratioP2;P2;SDS_P1;SDS_P2;PMS_P1;PMS_P2;Temp;Humidity;BMP_temperature;BMP_pressure;BME280_temperature;BME280_humidity;BME280_pressure;Samples;Min_cycle;Max_cycle;Signal;HPM_P1;HPM_P2
2021/11/20 00:00:59;;;;;;;10.50;2.00;;;;;;;10.39;78.54;100799.80;102803;1315;26531;-62
2021/11/20 00:03:31;;;;;;;10.60;1.80;;;;;;;10.39;78.56;100795.10;102789;1313;24278;-62
2021/11/20 00:06:03;;;;;;;12.00;2.60;;;;;;;10.39;78.57;100795.89;102786;1313;22640;-62
2021/11/20 00:08:34;;;;;;;15.30;2.20;;;;;;;10.39;78.56;100798.84;102877;1315;24227;-62
2021/11/20 00:11:09;;;;;;;11.30;2.40;;;;;;;10.39;78.62;100798.23;102674;1313;22590;-62
2021/11/20 00:13:42;;;;;;;9.50;2.10;;;;;;;10.39;78.49;100802.38;102835;1313;25547;-62
2021/11/20 00:16:14;;;;;;;9.70;2.10;;;;;;;10.38;78.65;100805.36;102729;1313;22638;-62
2021/11/20 00:18:46;;;;;;;12.20;2.90;;;;;;;10.38;78.64;100807.59;102903;1316;23973;-62
2021/11/20 00:21:26;;;;;;;10.10;2.30;;;;;;;10.38;78.63;100806.58;102846;1314;25220;-62
2021/11/20 00:24:00;;;;;;;9.70;2.30;;;;;;;10.39;78.51;100802.48;102879;1316;22583;-63
2021/11/20 00:26:35;;;;;;;9.80;2.90;;;;;;;10.39;78.50;100803.65;102924;1314;22569;-62
2021/11/20 00:29:26;;;;;;;10.70;1.90;;;;;;;10.39;78.59;100798.38;102741;1313;24624;-62
2021/11/20 00:32:02;;;;;;;15.60;2.70;;;;;;;10.39;78.71;100794.00;102893;1313;22574;-62
2021/11/20 00:34:35;;;;;;;12.70;2.40;;;;;;;10.38;78.56;100800.65;102787;1313;22758;-62
2021/11/20 00:37:07;;;;;;;11.70;2.50;;;;;;;10.38;78.63;100810.86;102847;1316;22647;-62
2021/11/20 00:39:39;;;;;;;10.70;3.40;;;;;;;10.38;78.65;100810.45;102809;1312;24326;-62
2021/11/20 00:42:13;;;;;;;6.90;1.90;;;;;;;10.38;78.64;100813.48;102777;1312;22585;-62
2021/11/20 00:44:44;;;;;;;9.00;1.90;;;;;;;10.39;78.80;100814.66;102835;1315;22558;-62
2021/11/20 00:47:16;;;;;;;11.20;2.90;;;;;;;10.39;78.75;100812.02;102796;1312;23108;-62
2021/11/20 00:49:50;;;;;;;10.30;2.50;;;;;;;10.39;78.87;100805.94;102779;1312;24251;-62
2021/11/20 00:52:21;;;;;;;11.40;2.80;;;;;;;10.39;78.84;100809.23;102771;1312;24232;-61
2021/11/20 00:54:52;;;;;;;9.70;2.50;;;;;;;10.39;78.90;100812.17;102951;1317;22552;-62
2021/11/20 00:57:24;;;;;;;12.60;2.70;;;;;;;10.39;78.89;100807.71;102831;1312;25448;-62
2021/11/20 00:59:55;;;;;;;11.90;2.30;;;;;;;10.39;78.83;100807.86;102988;1318;24500;-62
2021/11/20 01:02:26;;;;;;;13.80;2.30;;;;;;;10.40;78.92;100812.88;102743;1313;25541;-62
2021/11/20 01:04:57;;;;;;;10.40;2.20;;;;;;;10.40;78.88;100806.52;102719;1312;22577;-62
2021/11/20 01:07:29;;;;;;;10.90;2.00;;;;;;;10.41;78.90;100798.99;102744;1313;22603;-62
2021/11/20 01:10:00;;;;;;;11.60;2.90;;;;;;;10.41;78.82;100799.80;102732;1315;22683;-62
2021/11/20 01:12:32;;;;;;;12.50;2.60;;;;;;;10.42;78.83;100792.92;102761;1312;26526;-62
2021/11/20 01:15:04;;;;;;;12.50;2.60;;;;;;;10.41;78.99;100791.75;102796;1315;25562;-63
2021/11/20 01:17:36;;;;;;;13.80;2.80;;;;;;;10.41;78.86;100801.01;102862;1312;24529;-62
2021/11/20 01:20:10;;;;;;;8.90;2.40;;;;;;;10.40;79.06;100809.49;102936;1312;22574;-62
2021/11/20 01:22:41;;;;;;;13.90;2.90;;;;;;;10.41;79.04;100802.90;102782;1312;24321;-62
2021/11/20 01:25:13;;;;;;;14.00;3.10;;;;;;;10.42;79.17;100799.17;102687;1317;22603;-62
2021/11/20 01:27:45;;;;;;;9.60;2.50;;;;;;;10.44;78.99;100796.98;102844;1312;22584;-62
2021/11/20 01:30:19;;;;;;;11.20;2.90;;;;;;;10.44;79.15;100792.48;103213;1316;22568;-62
2021/11/20 01:32:51;;;;;;;15.60;3.40;;;;;;;10.45;78.95;100788.64;102929;1315;24349;-62
2021/11/20 01:35:23;;;;;;;9.00;2.80;;;;;;;10.46;79.11;100793.92;102932;1312;23979;-62
2021/11/20 01:37:55;;;;;;;10.80;2.50;;;;;;;10.46;79.19;100785.45;102679;1312;24307;-62
2021/11/20 01:40:29;;;;;;;11.10;2.50;;;;;;;10.47;79.18;100776.89;102705;1312;22640;-62
2021/11/20 01:43:01;;;;;;;11.30;2.60;;;;;;;10.47;79.28;100762.84;102973;1313;27695;-62
2021/11/20 01:45:35;;;;;;;15.00;3.40;;;;;;;10.48;79.12;100758.27;102846;1313;22593;-62
2021/11/20 01:48:28;;;;;;;14.20;2.90;;;;;;;10.48;79.18;100762.96;102998;1313;22605;-62
2021/11/20 01:51:06;;;;;;;12.10;2.50;;;;;;;10.49;79.35;100773.14;102795;1319;24426;-63
2021/11/20 01:53:42;;;;;;;13.20;3.10;;;;;;;10.50;79.26;100778.52;102946;1313;24218;-62
2021/11/20 01:56:17;;;;;;;15.50;2.50;;;;;;;10.50;79.30;100779.71;102774;1312;22556;-61
2021/11/20 01:58:53;;;;;;;10.40;2.50;;;;;;;10.50;79.38;100778.45;102882;1313;24458;-62
2021/11/20 02:01:29;;;;;;;10.90;2.90;;;;;;;10.50;79.48;100775.24;102957;1312;22612;-62
2021/11/20 02:04:17;;;;;;;12.10;2.70;;;;;;;10.49;79.31;100771.67;102914;1317;23424;-62
2021/11/20 02:06:54;;;;;;;11.50;2.80;;;;;;;10.51;79.51;100777.15;102717;1312;22714;-62
2021/11/20 02:09:30;;;;;;;15.00;2.70;;;;;;;10.51;79.62;100778.63;102786;1314;22586;-62
2021/11/20 02:12:05;;;;;;;12.20;3.20;;;;;;;10.52;79.49;100788.65;102790;1319;22580;-62
2021/11/20 02:14:37;;;;;;;11.80;3.50;;;;;;;10.52;79.55;100788.00;102926;1318;24234;-62
2021/11/20 02:17:13;;;;;;;10.60;2.10;;;;;;;10.52;79.63;100782.16;102841;1312;22646;-62
2021/11/20 02:19:52;;;;;;;12.20;2.80;;;;;;;10.53;79.64;100786.85;102711;1312;24298;-62
2021/11/20 02:22:35;;;;;;;12.80;3.10;;;;;;;10.53;79.59;100785.89;102841;1312;22577;-63
2021/11/20 02:25:03;;;;;;;14.50;3.10;;;;;;;10.53;79.62;100778.77;102709;1312;22570;-63
2021/11/20 02:27:37;;;;;;;11.50;2.80;;;;;;;10.54;79.55;100784.80;102685;1313;24219;-62
2021/11/20 02:30:22;;;;;;;11.60;3.00;;;;;;;10.54;79.64;100778.96;102839;1314;25460;-62
2021/11/20 02:32:55;;;;;;;14.40;2.90;;;;;;;10.54;79.68;100777.14;102834;1314;22616;-62
2021/11/20 02:35:30;;;;;;;10.30;3.10;;;;;;;10.53;79.61;100776.70;102727;1313;22632;-62
2021/11/20 02:38:02;;;;;;;11.80;2.90;;;;;;;10.53;79.66;100777.77;102749;1312;22991;-62
2021/11/20 02:40:33;;;;;;;15.70;3.40;;;;;;;10.53;79.57;100784.15;102657;1312;22670;-62
2021/11/20 02:43:05;;;;;;;11.30;4.00;;;;;;;10.53;79.59;100780.14;102736;1312;24408;-62
2021/11/20 02:45:39;;;;;;;14.20;3.30;;;;;;;10.53;79.74;100781.82;102715;1318;22658;-62
2021/11/20 02:48:11;;;;;;;14.20;3.60;;;;;;;10.52;79.52;100784.73;102755;1312;23975;-62
2021/11/20 02:50:45;;;;;;;14.80;3.50;;;;;;;10.52;79.56;100784.67;102781;1318;22573;-62
2021/11/20 02:53:19;;;;;;;13.40;3.40;;;;;;;10.51;79.71;100787.80;102813;1312;25373;-62
2021/11/20 02:55:51;;;;;;;9.80;3.10;;;;;;;10.51;79.74;100794.00;102785;1316;25635;-62
2021/11/20 02:58:24;;;;;;;10.60;2.90;;;;;;;10.50;79.82;100792.86;102852;1313;22565;-62
2021/11/20 03:00:59;;;;;;;13.20;3.40;;;;;;;10.50;79.74;100795.44;102965;1312;23927;-63
2021/11/20 03:03:32;;;;;;;12.10;3.60;;;;;;;10.50;80.00;100802.14;102814;1315;22902;-63
2021/11/20 03:06:03;;;;;;;18.20;3.80;;;;;;;10.49;79.88;100800.96;102857;1314;26667;-63
2021/11/20 03:08:35;;;;;;;12.20;3.40;;;;;;;10.49;79.94;100804.09;103049;1312;22558;-63
2021/11/20 03:11:07;;;;;;;15.20;4.10;;;;;;;10.49;79.83;100802.33;102734;1312;25326;-63
2021/11/20 03:13:38;;;;;;;12.70;3.60;;;;;;;10.49;79.91;100792.52;102776;1312;25319;-62
2021/11/20 03:16:11;;;;;;;13.60;3.80;;;;;;;10.48;79.99;100798.14;102754;1313;24317;-63
2021/11/20 03:18:42;;;;;;;9.40;3.00;;;;;;;10.49;80.07;100800.91;102780;1313;22681;-63
2021/11/20 03:21:16;;;;;;;13.50;3.40;;;;;;;10.49;79.96;100795.16;103012;1316;24215;-63
2021/11/20 03:23:58;;;;;;;14.00;3.50;;;;;;;10.49;80.00;100800.89;102757;1319;22577;-63
2021/11/20 03:26:31;;;;;;;13.30;3.40;;;;;;;10.48;80.04;100801.80;102904;1315;22574;-63
2021/11/20 03:29:02;;;;;;;16.30;3.50;;;;;;;10.49;80.06;100806.69;102703;1312;24455;-63
2021/11/20 03:31:33;;;;;;;11.10;3.50;;;;;;;10.49;80.07;100809.17;102654;1312;22625;-63
2021/11/20 03:34:05;;;;;;;12.30;3.20;;;;;;;10.50;80.01;100819.45;102782;1312;24254;-63
2021/11/20 03:36:36;;;;;;;13.80;3.60;;;;;;;10.49;80.24;100822.58;102787;1312;22644;-63
2021/11/20 03:39:09;;;;;;;13.10;3.10;;;;;;;10.48;80.24;100816.96;102629;1312;380321;-63
2021/11/20 03:41:42;;;;;;;14.40;4.80;;;;;;;10.48;80.24;100818.02;102728;1320;25355;-63
2021/11/20 03:44:14;;;;;;;14.10;3.60;;;;;;;10.47;80.39;100825.36;103184;1313;22658;-63
2021/11/20 03:46:46;;;;;;;12.90;3.20;;;;;;;10.47;80.30;100828.90;103096;1316;24219;-63
2021/11/20 03:49:17;;;;;;;14.10;3.40;;;;;;;10.47;80.25;100832.96;102747;1313;22612;-61
2021/11/20 03:51:48;;;;;;;13.90;4.40;;;;;;;10.47;80.27;100837.33;102797;1315;24222;-62
2021/11/20 03:54:19;;;;;;;13.70;3.60;;;;;;;10.47;80.49;100837.59;102762;1313;22569;-62
2021/11/20 03:56:53;;;;;;;16.00;4.10;;;;;;;10.47;80.44;100827.69;102989;1312;25239;-62
2021/11/20 03:59:24;;;;;;;12.90;3.90;;;;;;;10.47;80.43;100830.79;102792;1312;24474;-62
2021/11/20 04:01:55;;;;;;;16.00;3.70;;;;;;;10.47;80.50;100828.40;102875;1312;23157;-62
2021/11/20 04:04:27;;;;;;;10.80;3.40;;;;;;;10.46;80.52;100834.18;102796;1313;24218;-62
2021/11/20 04:06:59;;;;;;;11.50;3.60;;;;;;;10.47;80.58;100830.88;102981;1315;22545;-62
2021/11/20 04:09:30;;;;;;;17.00;4.70;;;;;;;10.46;80.45;100827.73;102761;1312;22577;-62
2021/11/20 04:12:02;;;;;;;20.00;4.30;;;;;;;10.47;80.50;100817.02;102927;1319;24240;-62
2021/11/20 04:14:33;;;;;;;14.50;4.10;;;;;;;10.46;80.61;100813.05;102933;1312;24007;-61
2021/11/20 04:17:07;;;;;;;14.50;4.20;;;;;;;10.46;80.72;100821.52;102604;1312;24195;-62
2021/11/20 04:19:38;;;;;;;13.80;4.30;;;;;;;10.47;80.63;100826.11;102866;1313;22583;-62
2021/11/20 04:22:09;;;;;;;15.00;4.60;;;;;;;10.46;80.72;100824.52;102847;1312;22582;-62
2021/11/20 04:24:40;;;;;;;13.80;4.30;;;;;;;10.46;80.63;100818.23;102826;1315;25066;-62
2021/11/20 04:27:12;;;;;;;14.40;4.30;;;;;;;10.46;80.69;100816.80;103317;1301;22701;-61
2021/11/20 04:29:44;;;;;;;16.80;4.00;;;;;;;10.46;80.75;100815.70;102775;1311;22686;-60
2021/11/20 04:32:15;;;;;;;15.30;3.50;;;;;;;10.45;80.67;100819.56;102555;1312;22590;-58
2021/11/20 04:34:46;;;;;;;15.20;4.40;;;;;;;10.44;80.77;100811.73;102472;1317;24348;-61
2021/11/20 04:37:17;;;;;;;15.20;4.80;;;;;;;10.44;80.85;100811.10;102502;1320;22597;-60
2021/11/20 04:39:48;;;;;;;17.90;5.30;;;;;;;10.43;81.05;100806.96;102476;1313;22597;-59
2021/11/20 04:42:20;;;;;;;14.20;4.20;;;;;;;10.43;80.85;100806.82;102275;1317;24310;-60
2021/11/20 04:44:52;;;;;;;11.80;3.90;;;;;;;10.44;80.95;100799.44;103886;1315;22600;-59
2021/11/20 04:47:23;;;;;;;17.70;4.40;;;;;;;10.44;80.92;100800.46;102648;1314;22590;-62
2021/11/20 04:49:54;;;;;;;11.30;3.30;;;;;;;10.45;80.93;100801.88;102659;1319;24332;-60
2021/11/20 04:52:25;;;;;;;13.60;4.80;;;;;;;10.44;81.09;100798.63;102709;1315;22766;-59
2021/11/20 04:54:57;;;;;;;18.30;4.50;;;;;;;10.45;80.96;100802.98;102818;1314;22586;-61
2021/11/20 04:57:28;;;;;;;15.90;4.60;;;;;;;10.44;81.07;100802.95;102678;1314;23348;-63
2021/11/20 04:59:59;;;;;;;10.80;3.80;;;;;;;10.44;81.05;100803.01;102873;1315;23106;-61
2021/11/20 05:02:30;;;;;;;18.20;4.20;;;;;;;10.44;81.19;100803.19;102690;1313;22647;-61
2021/11/20 05:05:01;;;;;;;16.60;4.80;;;;;;;10.44;81.09;100805.36;102557;1313;24454;-60
2021/11/20 05:07:32;;;;;;;13.10;3.70;;;;;;;10.43;81.30;100808.17;103027;1313;22657;-60
2021/11/20 05:10:05;;;;;;;13.80;4.70;;;;;;;10.42;81.19;100820.80;102778;1313;24241;-61
2021/11/20 05:12:37;;;;;;;18.00;5.30;;;;;;;10.41;81.33;100818.54;102664;1313;24799;-62
2021/11/20 05:15:13;;;;;;;19.20;5.30;;;;;;;10.40;81.28;100816.90;102661;1313;22608;-59
2021/11/20 05:17:45;;;;;;;15.10;4.20;;;;;;;10.40;81.40;100816.02;102800;1313;25442;-59
2021/11/20 05:20:16;;;;;;;18.40;3.90;;;;;;;10.40;81.40;100820.34;102710;1313;22581;-59
2021/11/20 05:22:49;;;;;;;16.70;4.60;;;;;;;10.39;81.44;100826.35;102624;1320;22593;-60
2021/11/20 05:25:21;;;;;;;17.70;4.70;;;;;;;10.39;81.55;100828.84;102413;1316;22531;-59
2021/11/20 05:27:54;;;;;;;17.90;4.50;;;;;;;10.38;81.45;100831.90;102551;1315;25285;-59
2021/11/20 05:30:30;;;;;;;20.50;4.60;;;;;;;10.37;81.67;100837.30;102736;1313;22558;-59
2021/11/20 05:33:03;;;;;;;15.40;4.80;;;;;;;10.36;81.78;100843.11;102727;1320;22590;-59
2021/11/20 05:35:34;;;;;;;13.90;4.30;;;;;;;10.34;81.75;100842.85;102635;1315;22675;-60
2021/11/20 05:38:06;;;;;;;13.90;5.00;;;;;;;10.32;81.82;100841.76;102535;1315;22658;-60
2021/11/20 05:40:38;;;;;;;18.20;5.40;;;;;;;10.29;81.88;100840.30;102743;1315;24271;-59
2021/11/20 05:43:13;;;;;;;17.40;5.10;;;;;;;10.26;82.18;100836.11;102581;1313;22643;-59
2021/11/20 05:45:49;;;;;;;16.30;4.90;;;;;;;10.23;82.41;100837.09;102568;1313;22599;-60
2021/11/20 05:48:21;;;;;;;20.10;5.20;;;;;;;10.21;82.34;100834.42;102447;1319;22600;-59
2021/11/20 05:50:53;;;;;;;15.40;4.90;;;;;;;10.18;82.56;100835.31;102652;1314;25394;-60
2021/11/20 05:53:26;;;;;;;19.70;5.50;;;;;;;10.16;82.76;100841.14;102922;1313;24278;-59
2021/11/20 05:55:59;;;;;;;15.20;6.00;;;;;;;10.14;82.66;100843.36;102293;1316;24246;-60
2021/11/20 05:58:30;;;;;;;14.90;5.90;;;;;;;10.13;82.80;100849.56;102713;1315;25248;-60
2021/11/20 06:01:05;;;;;;;16.70;6.40;;;;;;;10.10;82.89;100850.31;102607;1317;22984;-59
2021/11/20 06:03:37;;;;;;;18.20;7.00;;;;;;;10.08;83.10;100856.83;102649;1315;22631;-59
2021/11/20 06:06:09;;;;;;;20.70;7.60;;;;;;;10.06;83.22;100864.90;102295;1316;24237;-58
2021/11/20 06:08:40;;;;;;;16.40;6.80;;;;;;;10.04;83.42;100862.42;102673;1314;24242;-59
2021/11/20 06:11:12;;;;;;;15.60;6.80;;;;;;;10.01;83.73;100863.01;102638;1316;24450;-60
2021/11/20 06:13:43;;;;;;;19.90;6.60;;;;;;;9.99;83.70;100864.16;102793;1315;25433;-59
2021/11/20 06:16:15;;;;;;;17.60;5.90;;;;;;;9.97;83.90;100871.95;102774;1313;22627;-62
2021/11/20 06:18:46;;;;;;;18.00;6.00;;;;;;;9.94;84.26;100878.20;102549;1314;22672;-60
2021/11/20 06:21:18;;;;;;;15.50;6.00;;;;;;;9.92;84.35;100879.81;102593;1316;25353;-60
2021/11/20 06:23:49;;;;;;;17.80;7.20;;;;;;;9.90;84.57;100892.16;102576;1320;22591;-59
2021/11/20 06:26:20;;;;;;;16.00;5.60;;;;;;;9.87;84.78;100893.33;102369;1316;25303;-60
2021/11/20 06:28:52;;;;;;;17.00;5.00;;;;;;;9.85;84.82;100898.66;102419;1316;25427;-62
2021/11/20 06:31:23;;;;;;;12.60;4.50;;;;;;;9.83;85.22;100899.45;102471;1314;22650;-62
2021/11/20 06:33:55;;;;;;;17.20;6.70;;;;;;;9.80;85.54;100895.00;102579;1316;22682;-60
2021/11/20 06:36:27;;;;;;;15.20;5.50;;;;;;;9.77;85.56;100898.55;102592;1316;23816;-60
2021/11/20 06:38:59;;;;;;;22.40;7.10;;;;;;;9.75;85.72;100899.27;102477;1317;25385;-61
2021/11/20 06:41:30;;;;;;;14.10;5.40;;;;;;;9.74;85.82;100899.41;102425;1314;22573;-59
2021/11/20 06:44:02;;;;;;;16.70;5.60;;;;;;;9.72;85.92;100901.13;102646;1316;22666;-60
2021/11/20 06:46:33;;;;;;;16.40;6.80;;;;;;;9.72;86.28;100901.31;102399;1316;22589;-60
2021/11/20 06:49:06;;;;;;;21.30;5.90;;;;;;;9.70;86.27;100906.39;102704;1316;24357;-60
2021/11/20 06:51:39;;;;;;;13.40;5.80;;;;;;;9.68;86.38;100906.38;106301;1317;22432;-61
2021/11/20 06:54:12;;;;;;;19.90;6.20;;;;;;;9.68;86.58;100908.55;106267;1317;22402;-61
2021/11/20 06:56:52;;;;;;;18.80;6.50;;;;;;;9.67;86.54;100911.77;102683;1317;22664;-61
2021/11/20 07:02:17;;;;;;;17.80;6.90;;;;;;;9.67;86.57;100920.38;102423;1316;22611;-61
2021/11/20 07:04:48;;;;;;;14.50;6.10;;;;;;;9.68;86.66;100922.02;102373;1316;25431;-60
2021/11/20 07:07:19;;;;;;;19.60;7.40;;;;;;;9.68;86.89;100926.39;102483;1316;25423;-61
2021/11/20 07:09:50;;;;;;;18.20;6.90;;;;;;;9.68;86.93;100925.77;102433;1316;22624;-59
2021/11/20 07:12:21;;;;;;;17.70;7.00;;;;;;;9.67;86.93;100926.75;102506;1317;25506;-60
2021/11/20 07:14:52;;;;;;;18.70;7.30;;;;;;;9.66;86.97;100927.95;102521;1318;22574;-60
2021/11/20 07:17:24;;;;;;;19.90;8.80;;;;;;;9.66;87.17;100927.09;102463;1316;22596;-60
2021/11/20 07:19:55;;;;;;;22.20;8.60;;;;;;;9.65;87.17;100926.26;102500;1316;22721;-59
2021/11/20 07:22:28;;;;;;;17.00;7.20;;;;;;;9.65;87.32;100929.69;102510;1316;23933;-62
2021/11/20 07:24:59;;;;;;;17.90;8.20;;;;;;;9.64;87.31;100929.46;102449;1317;26263;-60
2021/11/20 07:27:32;;;;;;;14.60;5.30;;;;;;;9.63;87.50;100926.65;102191;1314;22721;-61
2021/11/20 07:30:04;;;;;;;17.20;6.90;;;;;;;9.63;87.70;100928.40;102780;1318;22522;-61
2021/11/20 07:32:40;;;;;;;19.50;8.20;;;;;;;9.62;87.97;100929.57;102700;1316;24101;-61
2021/11/20 07:35:13;;;;;;;18.00;8.20;;;;;;;9.61;87.93;100929.45;102528;1314;24336;-61
2021/11/20 07:37:44;;;;;;;17.40;8.00;;;;;;;9.59;88.03;100931.83;102607;1314;25424;-61
2021/11/20 07:40:16;;;;;;;16.90;7.20;;;;;;;9.58;88.19;100930.52;102670;1314;24224;-61
2021/11/20 07:42:47;;;;;;;17.10;7.30;;;;;;;9.57;88.10;100929.91;102539;1314;25392;-60
2021/11/20 07:45:18;;;;;;;18.00;8.90;;;;;;;9.57;88.20;100932.95;102666;1314;24262;-60
2021/11/20 07:47:50;;;;;;;16.70;7.40;;;;;;;9.56;88.26;100929.39;102604;1314;24386;-61
2021/11/20 07:50:22;;;;;;;16.00;6.90;;;;;;;9.56;88.45;100929.16;103248;1314;23967;-60
2021/11/20 07:52:53;;;;;;;15.20;5.90;;;;;;;9.55;88.51;100924.52;102577;1314;22710;-61
2021/11/20 07:55:24;;;;;;;17.10;7.50;;;;;;;9.54;88.62;100928.45;102540;1316;22687;-61
2021/11/20 07:57:56;;;;;;;14.10;5.60;;;;;;;9.54;88.77;100929.23;102722;1314;22577;-61
2021/11/20 08:00:29;;;;;;;18.50;7.80;;;;;;;9.53;88.83;100930.23;102565;1314;22621;-61
2021/11/20 08:03:01;;;;;;;19.40;6.80;;;;;;;9.52;88.88;100931.30;102667;1314;25373;-61
2021/11/20 08:05:32;;;;;;;14.40;6.60;;;;;;;9.52;89.03;100931.32;102673;1314;22586;-62
2021/11/20 08:08:05;;;;;;;19.20;7.40;;;;;;;9.52;89.11;100936.17;102442;1315;23141;-62
2021/11/20 08:10:38;;;;;;;17.30;7.80;;;;;;;9.52;89.22;100935.93;102589;1313;24402;-60
2021/11/20 08:13:10;;;;;;;18.60;7.10;;;;;;;9.51;89.33;100938.43;102582;1314;22694;-62
2021/11/20 08:15:41;;;;;;;19.20;7.50;;;;;;;9.52;89.30;100935.05;102693;1313;26128;-62
2021/11/20 08:18:13;;;;;;;18.00;6.70;;;;;;;9.52;89.54;100934.16;102727;1314;24744;-61
2021/11/20 08:20:47;;;;;;;17.10;7.90;;;;;;;9.52;89.64;100930.75;102796;1316;22615;-60
2021/11/20 08:23:18;;;;;;;16.20;7.30;;;;;;;9.53;89.86;100929.77;102835;1314;24241;-60
2021/11/20 08:25:51;;;;;;;24.50;9.70;;;;;;;9.53;89.81;100927.13;102596;1313;25267;-61
2021/11/20 08:28:24;;;;;;;20.60;7.70;;;;;;;9.53;89.74;100927.60;102835;1314;25358;-61
2021/11/20 08:30:56;;;;;;;20.70;8.80;;;;;;;9.54;89.89;100924.23;103496;1313;25427;-63
2021/11/20 08:33:30;;;;;;;18.50;8.00;;;;;;;9.54;89.92;100927.55;102703;1316;22629;-62
2021/11/20 08:36:04;;;;;;;16.70;7.20;;;;;;;9.56;89.91;100929.73;103689;1314;23804;-62
2021/11/20 08:38:47;;;;;;;18.90;7.60;;;;;;;9.57;89.97;100930.63;102646;1318;23262;-62
2021/11/20 08:41:21;;;;;;;20.60;9.20;;;;;;;9.59;89.95;100930.64;102780;1314;22596;-63
2021/11/20 08:43:52;;;;;;;15.00;6.20;;;;;;;9.61;90.04;100933.20;102726;1313;22639;-63
2021/11/20 08:57:13;;;;;;;15.30;6.00;;;;;;;9.70;90.02;100930.52;102680;1314;22611;-60
2021/11/20 08:59:45;;;;;;;15.50;7.70;;;;;;;9.72;90.07;100926.78;102799;1314;22644;-61
2021/11/20 09:02:21;;;;;;;15.30;6.80;;;;;;;9.74;90.07;100930.94;102600;1316;24243;-59
2021/11/20 09:04:56;;;;;;;17.60;6.90;;;;;;;9.76;90.09;100931.23;103219;1314;22587;-61
2021/11/20 09:07:32;;;;;;;17.00;7.70;;;;;;;9.78;90.13;100927.25;103626;1314;22625;-62
2021/11/20 09:10:09;;;;;;;18.60;8.30;;;;;;;9.82;90.12;100927.36;102817;1314;22650;-61
2021/11/20 09:12:51;;;;;;;16.90;7.40;;;;;;;9.86;90.10;100929.20;102936;1314;22588;-60
2021/11/20 09:15:28;;;;;;;16.70;6.50;;;;;;;9.90;90.02;100923.40;102636;1316;25684;-60
2021/11/20 09:17:59;;;;;;;17.20;7.20;;;;;;;9.94;90.09;100922.21;102586;1316;22596;-60
2021/11/20 09:20:31;;;;;;;21.30;8.10;;;;;;;9.98;89.94;100922.51;102948;1314;24597;-60
2021/11/20 09:23:03;;;;;;;17.80;6.60;;;;;;;10.01;89.89;100918.40;102917;1314;22587;-60
2021/11/20 09:25:36;;;;;;;17.70;7.60;;;;;;;10.05;89.89;100916.12;102868;1313;24243;-60
2021/11/20 09:28:12;;;;;;;18.40;7.60;;;;;;;10.07;89.85;100914.33;102834;1317;22615;-59
2021/11/20 09:30:47;;;;;;;15.60;6.50;;;;;;;10.11;89.79;100917.09;102793;1314;22609;-60
2021/11/20 09:33:19;;;;;;;19.00;6.80;;;;;;;10.13;89.72;100920.49;102841;1314;24333;-60
2021/11/20 09:35:52;;;;;;;15.70;6.40;;;;;;;10.15;89.64;100914.14;102597;1320;25299;-60
2021/11/20 09:38:25;;;;;;;19.30;6.60;;;;;;;10.17;89.71;100916.28;104028;1316;22567;-59
2021/11/20 09:40:59;;;;;;;14.50;5.90;;;;;;;10.19;89.72;100917.81;103198;1314;24450;-60
2021/11/20 09:43:33;;;;;;;19.20;6.50;;;;;;;10.20;89.42;100909.33;102552;1319;25380;-60
2021/11/20 09:46:15;;;;;;;17.20;5.90;;;;;;;10.21;89.58;100908.15;102727;1313;25609;-60
2021/11/20 09:48:50;;;;;;;14.50;5.10;;;;;;;10.21;89.47;100906.14;102611;1314;22594;-59
2021/11/20 09:51:26;;;;;;;14.40;5.20;;;;;;;10.22;89.30;100905.73;102676;1317;22589;-60
2021/11/20 09:54:02;;;;;;;17.20;5.50;;;;;;;10.23;89.32;100904.80;106143;1323;22570;-60
2021/11/20 09:56:43;;;;;;;15.60;5.70;;;;;;;10.23;89.25;100904.21;102778;1320;25271;-62
2021/11/20 09:59:30;;;;;;;10.80;4.40;;;;;;;10.23;89.17;100904.05;102890;1317;22770;-60
2021/11/20 10:02:11;;;;;;;17.20;5.50;;;;;;;10.23;88.99;100902.63;102661;1313;25469;-59
2021/11/20 10:04:54;;;;;;;10.30;4.50;;;;;;;10.22;89.17;100895.23;102997;1314;22644;-60
2021/11/20 10:07:30;;;;;;;17.00;5.40;;;;;;;10.23;89.08;100890.69;102766;1320;22748;-60
2021/11/20 10:10:05;;;;;;;15.80;5.80;;;;;;;10.22;89.15;100893.83;102765;1320;24321;-60
2021/11/20 10:12:41;;;;;;;15.70;6.70;;;;;;;10.22;89.14;100887.77;102753;1316;22602;-61
2021/11/20 10:15:19;;;;;;;16.30;6.20;;;;;;;10.21;89.19;100883.26;102690;1320;22555;-61
2021/11/20 10:17:53;;;;;;;15.30;6.20;;;;;;;10.20;89.20;100879.15;102887;1321;24449;-62
2021/11/20 10:20:43;;;;;;;15.90;6.40;;;;;;;10.20;89.25;100872.55;102875;1316;24218;-59
2021/11/20 10:23:30;;;;;;;16.30;5.30;;;;;;;10.19;89.22;100866.52;102922;1314;25268;-59
2021/11/20 10:26:45;;;;;;;16.40;7.20;;;;;;;10.18;89.21;100865.23;102877;1320;23861;-60
2021/11/20 10:29:34;;;;;;;17.70;6.70;;;;;;;10.16;89.12;100858.11;102766;1314;22576;-60
2021/11/20 10:32:12;;;;;;;18.90;7.60;;;;;;;10.15;89.15;100859.68;103141;1321;22600;-61
2021/11/20 10:34:54;;;;;;;12.80;5.80;;;;;;;10.15;89.12;100854.10;102980;1314;24519;-60
2021/11/20 10:37:28;;;;;;;17.40;6.50;;;;;;;10.16;89.03;100855.84;102815;1314;24495;-59
2021/11/20 10:40:04;;;;;;;15.40;5.70;;;;;;;10.15;89.01;100852.67;102908;1318;24250;-59
2021/11/20 10:42:39;;;;;;;19.90;7.30;;;;;;;10.15;88.85;100853.14;102810;1319;22613;-62
2021/11/20 10:45:15;;;;;;;19.30;7.00;;;;;;;10.16;88.83;100855.14;102726;1319;24321;-60
2021/11/20 10:47:59;;;;;;;15.30;5.70;;;;;;;10.17;88.77;100856.09;102890;1317;25565;-60
2021/11/20 10:50:35;;;;;;;21.00;8.20;;;;;;;10.18;88.65;100859.49;102932;1320;22592;-59
2021/11/20 10:53:50;;;;;;;19.70;7.20;;;;;;;10.18;88.45;100857.87;102802;1314;25482;-62
2021/11/20 10:56:31;;;;;;;20.80;7.50;;;;;;;10.18;88.56;100850.16;102700;1317;25228;-60
2021/11/20 10:59:27;;;;;;;15.00;5.50;;;;;;;10.18;88.46;100849.11;102858;1318;25399;-61
2021/11/20 11:02:25;;;;;;;18.20;6.30;;;;;;;10.18;88.41;100841.60;102451;1320;22569;-61
2021/11/20 11:05:27;;;;;;;69.00;22.70;;;;;;;10.19;88.45;100836.07;101759;1329;22940;-61
2021/11/20 11:08:10;;;;;;;33.60;10.70;;;;;;;10.21;88.41;100833.12;101968;1332;22619;-60
2021/11/20 11:10:46;;;;;;;55.50;18.60;;;;;;;10.23;88.19;100832.80;101805;1332;22609;-61
2021/11/20 11:13:24;;;;;;;31.90;14.20;;;;;;;10.24;88.14;100830.02;101898;1326;25392;-60
2021/11/20 11:16:22;;;;;;;19.90;7.10;;;;;;;10.26;88.11;100820.56;101925;1329;25347;-60
2021/11/20 11:18:58;;;;;;;14.60;5.20;;;;;;;10.27;88.03;100816.75;101935;1325;24348;-60
2021/11/20 11:21:48;;;;;;;15.70;5.50;;;;;;;10.28;87.90;100813.04;101715;1325;23099;-61
2021/11/20 11:24:54;;;;;;;17.40;7.20;;;;;;;10.30;87.86;100814.41;101805;1330;25443;-61
2021/11/20 11:27:33;;;;;;;16.90;5.50;;;;;;;10.31;87.68;100816.52;101279;1329;22596;-61
2021/11/20 11:30:23;;;;;;;15.50;6.50;;;;;;;10.32;87.54;100812.73;101360;1333;25427;-60
2021/11/20 11:32:54;;;;;;;17.90;7.10;;;;;;;10.32;87.48;100808.91;101481;1334;25309;-60
2021/11/20 11:35:29;;;;;;;13.80;4.80;;;;;;;10.33;87.39;100809.67;101734;1329;23985;-60
2021/11/20 11:38:15;;;;;;;15.50;6.40;;;;;;;10.33;87.42;100799.83;97819;1329;5433297;-61
2021/11/20 11:40:56;;;;;;;16.60;6.10;;;;;;;10.34;87.25;100798.70;101683;1326;22577;-60
2021/11/20 11:43:45;;;;;;;14.00;5.10;;;;;;;10.34;87.23;100793.83;101850;1325;25418;-59
2021/11/20 11:46:34;;;;;;;16.40;6.20;;;;;;;10.35;87.11;100793.39;102292;1323;22590;-61
2021/11/20 11:49:48;;;;;;;14.70;5.30;;;;;;;10.36;87.13;100785.29;102154;1323;25363;-61
2021/11/20 11:52:54;;;;;;;16.00;5.40;;;;;;;10.36;87.17;100780.39;101563;1328;24515;-61
2021/11/20 11:55:47;;;;;;;12.70;4.20;;;;;;;10.38;87.13;100775.96;101082;1329;22612;-60
2021/11/20 11:58:41;;;;;;;14.70;5.10;;;;;;;10.38;86.96;100779.03;101097;1329;25313;-61
2021/11/20 12:01:15;;;;;;;15.20;4.70;;;;;;;10.39;86.92;100777.73;101174;1334;23429;-60